TimeMST,TemperatureF,Dew PointF,Humidity,Sea Level PressureIn,VisibilityMPH,Wind Direction,Wind SpeedMPH,Gust SpeedMPH,PrecipitationIn,Events,Conditions,WindDirDegrees,DateUTC
12:15 AM,12.2,-9.4,38,-9999,10.0,West,4.6,-,N/A,,Clear,280,2013-01-29 07:15:00
12:35 AM,12.2,-9.4,38,-9999,10.0,West,4.6,-,N/A,,Clear,270,2013-01-29 07:35:00
12:55 AM,12.2,-7.6,41,-9999,10.0,WNW,8.1,16.1,N/A,,Clear,290,2013-01-29 07:55:00
1:15 AM,10.4,-7.6,44,-9999,10.0,NW,5.8,-,N/A,,Clear,310,2013-01-29 08:15:00
1:35 AM,8.6,-5.8,52,-9999,10.0,WNW,8.1,-,N/A,,Clear,290,2013-01-29 08:35:00
1:55 AM,10.4,-5.8,48,-9999,10.0,West,10.4,-,N/A,,Clear,280,2013-01-29 08:55:00
2:15 AM,10.4,-4.0,52,-9999,10.0,West,11.5,-,N/A,,Clear,270,2013-01-29 09:15:00
2:35 AM,10.4,-5.8,48,-9999,10.0,West,11.5,16.1,N/A,,Mostly Cloudy,280,2013-01-29 09:35:00
2:55 AM,12.2,-5.8,45,-9999,10.0,West,12.7,23.0,N/A,,Mostly Cloudy,280,2013-01-29 09:55:00
3:15 AM,10.4,-4.0,52,-9999,10.0,West,10.4,16.1,N/A,,Overcast,270,2013-01-29 10:15:00
3:35 AM,10.4,-0.4,62,-9999,10.0,West,13.8,-,N/A,,Mostly Cloudy,270,2013-01-29 10:35:00
3:55 AM,10.4,-0.4,62,-9999,10.0,West,6.9,17.3,N/A,,Mostly Cloudy,280,2013-01-29 10:55:00
4:15 AM,10.4,-0.4,62,-9999,10.0,WNW,9.2,-,N/A,,Overcast,290,2013-01-29 11:15:00
4:35 AM,10.4,1.4,67,-9999,10.0,West,10.4,-,N/A,,Overcast,260,2013-01-29 11:35:00
4:55 AM,8.6,1.4,73,-9999,10.0,WSW,10.4,-,N/A,,Overcast,240,2013-01-29 11:55:00
5:15 AM,8.6,1.4,73,-9999,10.0,SW,8.1,-,N/A,,Overcast,230,2013-01-29 12:15:00
6:15 AM,6.8,3.2,85,-9999,10.0,SW,12.7,-,N/A,,Mostly Cloudy,230,2013-01-29 13:15:00
6:35 AM,6.8,1.4,79,-9999,10.0,SW,11.5,-,N/A,,Scattered Clouds,230,2013-01-29 13:35:00
6:55 AM,8.6,1.4,73,-9999,10.0,West,12.7,-,N/A,,Scattered Clouds,260,2013-01-29 13:55:00
7:15 AM,8.6,1.4,73,-9999,10.0,WSW,12.7,-,N/A,,Scattered Clouds,250,2013-01-29 14:15:00
7:35 AM,8.6,1.4,73,-9999,10.0,WSW,10.4,-,N/A,,Clear,250,2013-01-29 14:35:00
7:55 AM,6.8,1.4,79,-9999,10.0,West,9.2,-,N/A,,Clear,260,2013-01-29 14:55:00
8:15 AM,6.8,1.4,79,-9999,10.0,West,9.2,-,N/A,,Scattered Clouds,260,2013-01-29 15:15:00
8:35 AM,6.8,1.4,79,-9999,10.0,West,8.1,-,N/A,,Mostly Cloudy,260,2013-01-29 15:35:00
8:55 AM,8.6,1.4,73,-9999,10.0,West,5.8,-,N/A,,Scattered Clouds,260,2013-01-29 15:55:00
9:15 AM,10.4,1.4,67,-9999,10.0,WSW,4.6,-,N/A,,Overcast,250,2013-01-29 16:15:00
9:35 AM,10.4,-0.4,62,-9999,10.0,West,3.5,-,N/A,,Overcast,260,2013-01-29 16:35:00
9:55 AM,14.0,-5.8,41,-9999,10.0,NNW,10.4,-,N/A,,Mostly Cloudy,330,2013-01-29 16:55:00
10:15 AM,14.0,-5.8,41,-9999,10.0,ENE,3.5,-,N/A,,Mostly Cloudy,70,2013-01-29 17:15:00
10:55 AM,17.6,-5.8,35,-9999,10.0,NE,8.1,20.7,N/A,,Scattered Clouds,50,2013-01-29 17:55:00
11:15 AM,17.6,-5.8,35,-9999,10.0,North,12.7,17.3,N/A,,Clear,360,2013-01-29 18:15:00
11:35 AM,17.6,-4.0,38,-9999,10.0,North,13.8,24.2,N/A,,Scattered Clouds,350,2013-01-29 18:35:00
11:55 AM,17.6,-4.0,38,-9999,10.0,North,15.0,21.9,N/A,,Mostly Cloudy,360,2013-01-29 18:55:00
12:15 PM,17.6,-4.0,38,-9999,10.0,North,13.8,26.5,N/A,,Mostly Cloudy,350,2013-01-29 19:15:00
12:35 PM,15.8,-4.0,41,-9999,10.0,North,17.3,23.0,N/A,,Mostly Cloudy,360,2013-01-29 19:35:00
12:55 PM,15.8,-2.2,45,-9999,10.0,North,20.7,26.5,N/A,,Mostly Cloudy,360,2013-01-29 19:55:00
1:15 PM,15.8,-0.4,49,-9999,10.0,North,12.7,24.2,N/A,,Overcast,350,2013-01-29 20:15:00
1:35 PM,15.8,-0.4,49,-9999,10.0,North,13.8,-,N/A,,Overcast,10,2013-01-29 20:35:00
2:15 PM,12.2,5.0,73,-9999,1.5,North,11.5,23.0,N/A,Snow,Light Snow,10,2013-01-29 21:15:00
2:35 PM,12.2,8.6,85,-9999,1.8,North,12.7,17.3,N/A,Snow,Light Snow,360,2013-01-29 21:35:00
2:55 PM,12.2,8.6,85,-9999,2.0,NNE,9.2,-,N/A,Snow,Light Snow,20,2013-01-29 21:55:00
3:15 PM,12.2,6.8,79,-9999,4.0,NNE,10.4,-,N/A,,Haze,20,2013-01-29 22:15:00
3:35 PM,12.2,6.8,79,-9999,7.0,NNE,10.4,-,N/A,,Overcast,20,2013-01-29 22:35:00
3:55 PM,12.2,6.8,79,-9999,3.0,NNE,9.2,-,N/A,,Haze,20,2013-01-29 22:55:00
4:15 PM,12.2,6.8,79,-9999,4.0,North,10.4,16.1,N/A,,Haze,10,2013-01-29 23:15:00
4:35 PM,12.2,5.0,73,-9999,7.0,NNE,10.4,18.4,N/A,,Overcast,30,2013-01-29 23:35:00
4:55 PM,10.4,6.8,85,-9999,3.0,North,9.2,-,N/A,,Overcast,10,2013-01-29 23:55:00
5:15 PM,10.4,6.8,85,-9999,1.2,North,12.7,24.2,N/A,Snow,Light Snow,10,2013-01-30 00:15:00
5:35 PM,10.4,6.8,85,-9999,3.0,North,11.5,-,N/A,,Overcast,10,2013-01-30 00:35:00
5:55 PM,10.4,6.8,85,-9999,2.0,North,10.4,-,N/A,Snow,Light Snow,10,2013-01-30 00:55:00
6:15 PM,10.4,6.8,85,-9999,4.0,North,8.1,17.3,N/A,Snow,Light Snow,360,2013-01-30 01:15:00
6:55 PM,10.4,6.8,85,-9999,2.5,North,8.1,-,N/A,Snow,Light Snow,350,2013-01-30 01:55:00
7:15 PM,10.4,6.8,85,-9999,0.8,North,5.8,-,N/A,Snow,Light Snow,10,2013-01-30 02:15:00
7:35 PM,10.4,6.8,85,-9999,1.0,North,5.8,-,N/A,Snow,Light Snow,10,2013-01-30 02:35:00
7:55 PM,8.6,6.8,92,-9999,5.0,North,5.8,-,N/A,Snow,Light Snow,10,2013-01-30 02:55:00
8:15 PM,8.6,5.0,85,-9999,10.0,North,5.8,-,N/A,,Scattered Clouds,360,2013-01-30 03:15:00
8:35 PM,6.8,3.2,85,-9999,10.0,NNW,8.1,-,N/A,,Scattered Clouds,330,2013-01-30 03:35:00
8:55 PM,5.0,3.2,92,-9999,10.0,NNW,6.9,-,N/A,,Clear,330,2013-01-30 03:55:00
9:15 PM,8.6,3.2,79,-9999,10.0,Calm,Calm,-,N/A,,Clear,0,2013-01-30 04:15:00
9:35 PM,8.6,3.2,79,-9999,10.0,West,4.6,-,N/A,,Clear,270,2013-01-30 04:35:00
9:55 PM,6.8,1.4,79,-9999,10.0,West,3.5,-,N/A,,Clear,260,2013-01-30 04:55:00
10:15 PM,6.8,-5.8,56,-9999,10.0,WNW,6.9,-,N/A,,Clear,290,2013-01-30 05:15:00
10:35 PM,8.6,-7.6,48,-9999,10.0,WNW,8.1,-,N/A,,Clear,290,2013-01-30 05:35:00
10:55 PM,10.4,-11.2,37,-9999,10.0,WNW,9.2,-,N/A,,Clear,290,2013-01-30 05:55:00
11:15 PM,10.4,-11.2,37,-9999,10.0,WNW,5.8,-,N/A,,Scattered Clouds,290,2013-01-30 06:15:00
11:35 PM,10.4,-9.4,41,-9999,10.0,West,4.6,-,N/A,,Scattered Clouds,270,2013-01-30 06:35:00
11:55 PM,8.6,-7.6,48,-9999,10.0,West,5.8,-,N/A,,Clear,260,2013-01-30 06:55:00